Time;durP1;ratioP1;P1;durP2;ratioP2;P2;SDS_P1;SDS_P2;PMS_P1;PMS_P2;Temp;Humidity;BMP_temperature;BMP_pressure;BME280_temperature;BME280_humidity;BME280_pressure;Samples;Min_cycle;Max_cycle;Signal;HPM_P1;HPM_P2
2022/03/03 00:00:20;;;;;;;20.58;11.80;;;;;;;1.89;80.78;102063.41;5055595;28;20040;-73
2022/03/03 00:02:45;;;;;;;21.33;11.95;;;;;;;1.83;80.57;102061.59;5055437;28;20052;-76
2022/03/03 00:05:12;;;;;;;21.90;11.38;;;;;;;1.84;80.57;102057.25;5055530;28;20401;-77
2022/03/03 00:07:37;;;;;;;22.17;11.95;;;;;;;1.80;81.10;102057.22;5054165;28;20067;-73
2022/03/03 00:10:04;;;;;;;21.85;11.80;;;;;;;1.81;80.75;102060.69;5055279;28;20079;-73
2022/03/03 00:12:30;;;;;;;21.98;11.40;;;;;;;1.78;79.83;102056.31;5055338;28;20049;-75
2022/03/03 00:14:55;;;;;;;20.92;11.77;;;;;;;1.78;80.47;102061.53;5055351;28;20155;-76
2022/03/03 00:17:21;;;;;;;23.23;11.90;;;;;;;1.74;79.67;102058.88;5053644;28;20114;-73
2022/03/03 00:19:46;;;;;;;21.73;11.80;;;;;;;1.72;80.21;102064.06;5054489;28;20032;-75
2022/03/03 00:22:12;;;;;;;22.13;12.35;;;;;;;1.68;80.79;102054.47;5055097;28;20037;-74
2022/03/03 00:24:37;;;;;;;23.45;12.10;;;;;;;1.64;80.75;102047.47;5055134;28;20029;-75
2022/03/03 00:27:04;;;;;;;22.52;11.52;;;;;;;1.61;81.07;102052.63;5054274;28;20013;-76
2022/03/03 00:29:30;;;;;;;22.00;11.77;;;;;;;1.61;81.43;102052.63;5054632;28;20025;-73
2022/03/03 00:31:55;;;;;;;19.23;11.35;;;;;;;1.56;81.73;102041.25;5055026;28;20469;-73
2022/03/03 00:34:20;;;;;;;18.67;11.18;;;;;;;1.54;82.12;102054.28;5054740;28;20053;-74
2022/03/03 00:36:46;;;;;;;20.20;10.85;;;;;;;1.54;81.44;102045.59;5054949;28;20017;-76
2022/03/03 00:39:11;;;;;;;22.42;12.23;;;;;;;1.55;81.42;102048.22;5054412;28;20025;-73
2022/03/03 00:41:36;;;;;;;21.83;11.90;;;;;;;1.56;81.59;102049.09;5054433;28;20033;-74
2022/03/03 00:44:05;;;;;;;21.70;11.35;;;;;;;1.61;81.19;102052.63;5054774;28;20041;-75
2022/03/03 00:46:31;;;;;;;20.20;11.75;;;;;;;1.67;80.58;102051.84;5054591;28;20033;-77
2022/03/03 00:48:56;;;;;;;19.42;10.95;;;;;;;1.64;80.19;102050.94;5054253;28;20082;-73
2022/03/03 00:51:22;;;;;;;20.48;10.90;;;;;;;1.63;80.47;102048.31;5053325;28;20449;-76
2022/03/03 00:53:49;;;;;;;17.77;10.55;;;;;;;1.64;80.11;102050.94;5054460;28;20429;-73
2022/03/03 00:56:15;;;;;;;19.35;10.70;;;;;;;1.70;79.44;102046.63;5053818;28;20037;-76
2022/03/03 00:58:40;;;;;;;20.50;11.00;;;;;;;1.71;78.16;102040.56;5054381;28;20035;-73
2022/03/03 01:01:05;;;;;;;20.08;11.02;;;;;;;1.65;79.09;102033.56;5054084;28;20061;-72
2022/03/03 01:03:31;;;;;;;22.23;10.82;;;;;;;1.63;79.02;102036.13;5054526;28;20025;-72
2022/03/03 01:05:56;;;;;;;20.77;11.25;;;;;;;1.61;79.44;102034.34;5053886;28;20468;-74
2022/03/03 01:08:22;;;;;;;26.55;11.35;;;;;;;1.59;79.48;102034.34;5054489;28;20021;-77
2022/03/03 01:10:47;;;;;;;23.25;10.77;;;;;;;1.54;80.27;102030.78;5053938;28;20527;-73
2022/03/03 01:13:13;;;;;;;19.90;11.00;;;;;;;1.52;80.12;102022.06;5053885;28;20480;-74
2022/03/03 01:15:38;;;;;;;21.90;11.70;;;;;;;1.53;80.47;102025.56;5054248;28;20075;-76
2022/03/03 01:18:03;;;;;;;21.40;11.65;;;;;;;1.46;80.30;102024.63;5054178;28;20392;-74
2022/03/03 01:20:29;;;;;;;19.83;10.75;;;;;;;1.44;79.45;102021.97;5053958;28;20013;-75
2022/03/03 01:22:55;;;;;;;20.33;10.85;;;;;;;1.51;79.42;102014.22;5053220;28;20481;-73
2022/03/03 01:25:20;;;;;;;19.90;10.85;;;;;;;1.54;79.09;102020.34;5053989;28;20025;-77
2022/03/03 01:27:46;;;;;;;20.33;10.95;;;;;;;1.59;78.48;102012.59;5053875;28;20096;-73
2022/03/03 01:30:12;;;;;;;21.48;10.38;;;;;;;1.60;78.01;102009.13;5053850;28;20033;-74
2022/03/03 01:32:37;;;;;;;21.70;10.85;;;;;;;1.66;77.18;102005.69;5053324;28;20040;-78
2022/03/03 01:35:04;;;;;;;19.65;10.82;;;;;;;1.69;76.50;102001.38;5053502;28;20021;-77
2022/03/03 01:37:29;;;;;;;22.80;11.25;;;;;;;1.69;76.32;101983.09;5053701;28;20064;-74
2022/03/03 01:39:54;;;;;;;18.67;10.38;;;;;;;1.68;76.41;101991.78;5053658;28;20063;-76
2022/03/03 01:42:20;;;;;;;18.20;10.88;;;;;;;1.63;76.73;101980.44;5053080;28;20028;-75
2022/03/03 01:44:46;;;;;;;19.42;10.32;;;;;;;1.64;77.11;101987.41;5053135;28;20033;-74
2022/03/03 01:47:17;;;;;;;21.30;10.85;;;;;;;1.57;77.84;101986.47;5053648;28;20037;-77
2022/03/03 01:49:43;;;;;;;20.52;12.15;;;;;;;1.46;79.08;101986.34;5053518;28;20053;-77
2022/03/03 01:52:08;;;;;;;17.77;10.27;;;;;;;1.37;80.09;101977.50;5053093;28;20496;-77
2022/03/03 01:54:33;;;;;;;20.63;11.60;;;;;;;1.32;80.31;101969.66;5052765;28;20630;-75
2022/03/03 01:56:59;;;;;;;20.27;10.95;;;;;;;1.37;80.56;101983.63;5053453;28;20040;-77
2022/03/03 01:59:25;;;;;;;19.92;10.98;;;;;;;1.39;79.84;101981.88;5053639;28;20112;-74
2022/03/03 02:01:51;;;;;;;20.58;11.25;;;;;;;1.33;79.75;101986.16;5053492;28;20028;-77
2022/03/03 02:04:16;;;;;;;20.48;10.75;;;;;;;1.28;80.00;101978.31;5052996;28;20044;-74
2022/03/03 02:06:42;;;;;;;18.90;11.10;;;;;;;1.21;81.04;101966.88;5052669;28;20025;-74
2022/03/03 02:09:07;;;;;;;21.08;11.05;;;;;;;1.14;81.59;101963.34;5052616;28;20036;-76
2022/03/03 02:11:33;;;;;;;18.58;10.43;;;;;;;1.08;82.24;101962.41;5053222;28;20027;-75
2022/03/03 02:14:01;;;;;;;23.17;11.38;;;;;;;1.04;82.52;101956.25;5053081;28;20477;-74
2022/03/03 02:16:26;;;;;;;21.75;11.15;;;;;;;1.04;82.52;101948.44;5052248;28;20056;-76
2022/03/03 02:18:52;;;;;;;20.63;11.35;;;;;;;1.04;82.63;101952.78;5053038;28;20048;-75
2022/03/03 02:21:17;;;;;;;19.48;11.30;;;;;;;1.01;82.64;101943.19;5052962;28;20025;-73
2022/03/03 02:23:43;;;;;;;19.17;10.98;;;;;;;0.96;83.16;101950.94;5052473;28;20488;-75
2022/03/03 02:26:17;;;;;;;21.38;11.60;;;;;;;0.97;83.11;101947.50;5052576;28;20106;-75
2022/03/03 02:28:43;;;;;;;24.60;11.25;;;;;;;0.97;83.13;101942.28;5053044;28;20108;-74
2022/03/03 02:31:09;;;;;;;23.80;11.82;;;;;;;1.00;82.79;101943.16;5049132;28;20495;-76
2022/03/03 02:33:35;;;;;;;21.52;11.70;;;;;;;0.97;83.56;101942.28;5040211;28;20026;-75
2022/03/03 02:36:20;;;;;;;19.73;11.15;;;;;;;0.98;83.20;101949.25;5039335;28;20099;-74
2022/03/03 02:38:46;;;;;;;22.48;11.43;;;;;;;0.94;82.81;101950.03;5052794;28;20108;-74
2022/03/03 02:41:11;;;;;;;21.00;11.77;;;;;;;0.89;83.17;101946.50;5052758;28;20033;-75
2022/03/03 02:43:37;;;;;;;22.25;12.00;;;;;;;0.87;83.44;101945.63;5052657;28;20036;-77
2022/03/03 02:46:02;;;;;;;23.02;11.50;;;;;;;0.89;83.78;101954.31;5052189;28;20029;-75
2022/03/03 02:48:28;;;;;;;21.40;12.27;;;;;;;0.92;83.72;101941.34;5052796;28;20029;-74
2022/03/03 02:50:53;;;;;;;19.30;11.75;;;;;;;1.00;83.14;101940.53;5052564;28;20488;-75
2022/03/03 02:53:18;;;;;;;21.33;11.63;;;;;;;1.00;82.56;101940.53;5052246;28;20029;-74
2022/03/03 02:55:44;;;;;;;21.35;10.75;;;;;;;0.98;82.56;101941.41;5052436;28;20056;-77
2022/03/03 02:58:10;;;;;;;21.60;10.88;;;;;;;1.02;83.44;101941.44;5052152;28;20028;-75
2022/03/03 03:00:42;;;;;;;21.92;12.18;;;;;;;1.03;82.84;101944.06;5052575;28;20024;-74
2022/03/03 03:03:08;;;;;;;23.52;11.52;;;;;;;0.99;82.63;101937.06;5052619;28;20029;-73
2022/03/03 03:05:34;;;;;;;20.02;11.35;;;;;;;0.91;82.17;101938.69;5034550;28;20124;-76
2022/03/03 03:07:59;;;;;;;25.35;11.63;;;;;;;0.85;83.45;101943.84;5051429;28;20021;-73
2022/03/03 03:10:24;;;;;;;20.02;11.18;;;;;;;0.80;83.03;101930.72;5047510;28;20449;-76
2022/03/03 03:12:49;;;;;;;22.48;11.82;;;;;;;0.76;83.58;101932.41;5032624;28;20101;-74
2022/03/03 03:15:16;;;;;;;19.85;11.15;;;;;;;0.70;84.21;101932.34;5032577;28;20032;-75
2022/03/03 03:17:41;;;;;;;23.02;11.43;;;;;;;0.63;84.74;101925.31;5033846;28;20029;-76
2022/03/03 03:20:07;;;;;;;23.10;12.38;;;;;;;0.56;85.42;101913.88;5053629;28;20062;-76
2022/03/03 03:22:34;;;;;;;23.33;11.85;;;;;;;0.51;86.15;101925.97;5056180;28;20048;-76
2022/03/03 03:24:59;;;;;;;22.35;12.15;;;;;;;0.47;87.29;101925.09;5055711;28;20024;-74
2022/03/03 03:27:25;;;;;;;23.15;12.27;;;;;;;0.42;87.92;101920.66;5056080;28;20388;-74
2022/03/03 03:29:50;;;;;;;24.63;12.75;;;;;;;0.43;88.46;101922.41;5055860;28;20025;-74
2022/03/03 03:32:15;;;;;;;23.50;12.77;;;;;;;0.39;88.46;101916.25;5056202;28;20025;-74
2022/03/03 03:34:41;;;;;;;21.95;11.68;;;;;;;0.39;88.34;101921.47;5055932;28;20507;-76
2022/03/03 03:37:06;;;;;;;24.42;12.38;;;;;;;0.38;88.69;101911.91;5056275;28;20021;-77
2022/03/03 03:39:31;;;;;;;23.67;12.00;;;;;;;0.41;88.50;101924.09;5055298;28;20078;-74
2022/03/03 03:41:56;;;;;;;23.45;12.50;;;;;;;0.43;88.65;101907.63;5055878;28;20465;-73
2022/03/03 03:44:22;;;;;;;24.75;12.93;;;;;;;0.50;88.71;101903.41;5055463;28;20037;-75
2022/03/03 03:46:47;;;;;;;24.67;12.65;;;;;;;0.57;87.53;101904.34;5055865;28;20032;-76
2022/03/03 03:49:12;;;;;;;23.15;12.30;;;;;;;0.60;86.95;101899.16;5055766;28;20052;-74
2022/03/03 03:51:38;;;;;;;25.40;12.63;;;;;;;0.63;86.09;101889.66;5055494;28;20083;-76
2022/03/03 03:54:03;;;;;;;21.80;12.45;;;;;;;0.65;85.40;101895.78;5055493;28;20021;-78
2022/03/03 03:56:28;;;;;;;21.50;12.65;;;;;;;0.67;84.96;101895.81;5055065;28;20381;-77
2022/03/03 03:58:54;;;;;;;21.02;11.27;;;;;;;0.69;84.70;101894.09;5037284;28;20116;-76
2022/03/03 04:01:19;;;;;;;21.63;12.10;;;;;;;0.69;84.41;101899.31;5054889;28;20473;-76
2022/03/03 04:03:44;;;;;;;21.08;12.18;;;;;;;0.63;85.19;101896.63;5055441;28;20032;-77
2022/03/03 04:06:09;;;;;;;20.38;11.45;;;;;;;0.57;85.54;101888.72;5055511;28;20055;-75
2022/03/03 04:08:35;;;;;;;22.70;12.13;;;;;;;0.53;86.56;101893.00;5055421;28;20025;-76
2022/03/03 04:11:02;;;;;;;26.27;12.55;;;;;;;0.50;86.93;101890.38;5054789;28;20465;-75
2022/03/03 04:13:27;;;;;;;23.35;12.13;;;;;;;0.48;87.42;101892.06;5055066;28;20075;-77
2022/03/03 04:15:53;;;;;;;22.95;12.55;;;;;;;0.47;88.15;101885.09;5055510;28;20052;-77
2022/03/03 04:18:19;;;;;;;20.98;12.30;;;;;;;0.50;87.64;101895.59;5055586;28;20021;-76
2022/03/03 04:20:44;;;;;;;24.40;12.15;;;;;;;0.50;87.22;101895.59;5054171;28;20107;-77
2022/03/03 04:23:10;;;;;;;21.35;12.27;;;;;;;0.46;nan;101906.78;5054183;28;20396;-74
2022/03/03 04:25:35;;;;;;;20.13;11.50;;;;;;;0.37;87.97;101901.47;5054659;28;20599;-77
2022/03/03 04:28:02;;;;;;;22.08;12.32;;;;;;;0.30;89.31;101901.38;5054951;28;20025;-75
2022/03/03 04:30:28;;;;;;;23.08;12.68;;;;;;;0.29;89.71;101893.53;5054709;28;20033;-75
2022/03/03 04:32:53;;;;;;;22.42;11.68;;;;;;;0.32;89.54;101891.00;5054289;28;20041;-75
2022/03/03 04:35:18;;;;;;;22.95;12.73;;;;;;;0.31;89.30;101892.69;5055004;28;20033;-77
2022/03/03 04:37:43;;;;;;;21.63;12.00;;;;;;;0.31;89.12;101895.31;5054881;28;20021;-77
2022/03/03 04:40:09;;;;;;;21.42;12.18;;;;;;;0.29;89.30;101898.75;5054855;28;20389;-75
2022/03/03 04:42:35;;;;;;;22.98;11.80;;;;;;;0.23;89.22;101890.84;5054010;28;20481;-75
2022/03/03 04:45:01;;;;;;;25.48;13.43;;;;;;;0.22;89.75;101882.16;5054405;28;20025;-77
2022/03/03 04:47:26;;;;;;;24.92;12.50;;;;;;;0.26;89.72;101875.28;5054734;28;20020;-74
2022/03/03 04:49:51;;;;;;;22.10;12.10;;;;;;;0.30;88.81;101872.72;5054525;28;20045;-77
2022/03/03 04:52:16;;;;;;;23.35;12.95;;;;;;;0.30;88.08;101879.66;5054530;28;20024;-74
2022/03/03 04:54:42;;;;;;;22.85;12.90;;;;;;;0.29;87.51;101883.97;5053916;28;20044;-77
2022/03/03 04:57:08;;;;;;;25.08;14.68;;;;;;;0.23;87.43;101873.50;5054190;28;20025;-76
2022/03/03 04:59:33;;;;;;;26.73;13.88;;;;;;;0.19;88.54;101882.09;5054355;28;20111;-78
2022/03/03 05:01:59;;;;;;;25.10;14.95;;;;;;;0.13;88.83;101875.06;5054382;28;20036;-74
2022/03/03 05:04:24;;;;;;;27.98;14.88;;;;;;;0.10;89.06;101877.66;5053829;28;20419;-77
2022/03/03 05:06:50;;;;;;;26.95;15.18;;;;;;;0.08;89.71;101883.69;5054171;28;20472;-76
2022/03/03 05:09:15;;;;;;;26.90;15.05;;;;;;;0.00;90.05;101880.97;5054509;28;20021;-76
2022/03/03 05:11:41;;;;;;;24.50;14.82;;;;;;;-0.05;90.49;101882.59;5054098;28;20021;-75
2022/03/03 05:14:07;;;;;;;27.13;13.93;;;;;;;-0.07;90.88;101879.09;5053806;28;20039;-74
2022/03/03 05:16:32;;;;;;;26.63;13.65;;;;;;;-0.05;91.34;101874.78;5053788;28;20033;-77
2022/03/03 05:18:57;;;;;;;25.42;14.60;;;;;;;-0.03;90.76;101873.94;5053993;28;20025;-76
2022/03/03 05:21:23;;;;;;;23.88;13.30;;;;;;;-0.02;90.60;101875.72;5054078;28;20025;-75
2022/03/03 05:23:48;;;;;;;23.17;13.13;;;;;;;0.01;89.88;101872.28;5053591;28;20120;-75
2022/03/03 05:26:14;;;;;;;24.23;14.00;;;;;;;0.06;89.50;101883.63;5053513;28;20025;-77
2022/03/03 05:28:40;;;;;;;24.73;13.27;;;;;;;0.05;89.21;101871.50;5053521;28;20492;-78
2022/03/03 05:31:06;;;;;;;23.88;13.68;;;;;;;0.04;88.99;101874.06;5053820;28;20029;-77
2022/03/03 05:33:33;;;;;;;24.95;13.82;;;;;;;0.04;89.17;101885.38;5053679;28;20469;-77
2022/03/03 05:36:01;;;;;;;28.50;13.45;;;;;;;0.04;88.85;101874.06;5053357;28;20016;-76
2022/03/03 05:38:32;;;;;;;26.30;13.80;;;;;;;0.07;89.38;101877.59;5053017;28;20029;-75
2022/03/03 05:40:59;;;;;;;25.30;13.38;;;;;;;0.16;88.51;101876.84;5053557;28;20035;-75
2022/03/03 05:43:25;;;;;;;22.98;13.40;;;;;;;0.20;87.53;101881.25;5052245;28;20029;-72
2022/03/03 05:45:54;;;;;;;22.77;12.90;;;;;;;0.23;87.55;101881.31;5053155;28;20029;-77
2022/03/03 05:48:20;;;;;;;23.52;12.70;;;;;;;0.22;87.06;101882.16;5053046;28;20477;-76
2022/03/03 05:50:46;;;;;;;24.35;13.30;;;;;;;0.21;87.32;101876.94;5068465;28;20408;-75
2022/03/03 05:53:12;;;;;;;25.83;13.68;;;;;;;0.16;87.08;101882.91;5073439;28;20033;-76
2022/03/03 05:55:47;;;;;;;24.58;13.13;;;;;;;0.13;87.42;101882.88;5071682;28;20028;-78
2022/03/03 05:58:22;;;;;;;27.23;13.70;;;;;;;0.13;86.97;101884.63;5071155;28;20095;-77
2022/03/03 06:00:49;;;;;;;25.15;13.88;;;;;;;0.15;86.89;101886.41;5059742;28;20033;-74
2022/03/03 06:03:17;;;;;;;25.42;13.90;;;;;;;0.19;86.93;101881.22;5053376;28;20033;-74
2022/03/03 06:05:48;;;;;;;25.73;13.52;;;;;;;0.21;86.46;101880.41;5053327;28;20067;-77
2022/03/03 06:08:18;;;;;;;27.25;13.63;;;;;;;0.26;86.45;101880.47;5069513;28;20027;-74
2022/03/03 06:10:50;;;;;;;25.45;13.88;;;;;;;0.28;85.77;101887.47;5072823;28;20476;-74
2022/03/03 06:13:30;;;;;;;26.95;13.55;;;;;;;0.24;86.45;101888.25;5073019;28;20024;-74
2022/03/03 06:15:55;;;;;;;28.30;14.00;;;;;;;0.22;86.01;101892.56;5040240;28;20099;-74
2022/03/03 06:18:26;;;;;;;26.52;14.10;;;;;;;0.22;86.00;101892.56;5033880;28;20029;-75
2022/03/03 06:20:54;;;;;;;26.70;13.15;;;;;;;0.21;86.15;101895.16;5053576;28;20491;-74
2022/03/03 06:23:20;;;;;;;30.85;13.70;;;;;;;0.24;86.16;101890.00;5072420;28;20064;-74
2022/03/03 06:25:51;;;;;;;26.77;13.75;;;;;;;0.24;85.78;101877.81;5072678;28;20067;-75
2022/03/03 06:28:17;;;;;;;24.70;13.57;;;;;;;0.25;85.33;101884.78;5053851;28;20021;-75
2022/03/03 06:30:42;;;;;;;24.45;13.38;;;;;;;0.26;85.31;101880.47;5052786;28;20370;-78
2022/03/03 06:33:07;;;;;;;29.27;13.68;;;;;;;0.23;85.38;101885.63;5052724;28;20069;-76
2022/03/03 06:35:36;;;;;;;27.08;14.07;;;;;;;0.26;85.76;101878.75;5052517;28;20021;-77
2022/03/03 06:38:04;;;;;;;24.80;13.23;;;;;;;0.27;85.44;101887.41;5061300;28;20059;-75
2022/03/03 06:40:29;;;;;;;26.42;13.43;;;;;;;0.28;85.30;101894.38;5071007;28;20554;-73
2022/03/03 06:43:00;;;;;;;28.15;14.55;;;;;;;0.27;85.31;101885.69;5072450;28;20032;-75
2022/03/03 06:45:25;;;;;;;28.30;13.73;;;;;;;0.28;85.58;101889.16;5072454;28;20025;-76
2022/03/03 06:47:53;;;;;;;25.58;14.00;;;;;;;0.30;85.39;101890.09;5071104;28;20025;-75
2022/03/03 06:50:19;;;;;;;23.02;13.50;;;;;;;0.30;85.13;101896.16;5072495;28;20043;-76
2022/03/03 06:52:47;;;;;;;26.33;14.68;;;;;;;0.32;85.71;101902.28;5058600;28;20028;-75
2022/03/03 06:55:13;;;;;;;27.13;14.82;;;;;;;0.34;85.10;101893.63;5054926;28;20033;-75
2022/03/03 06:57:40;;;;;;;29.75;15.18;;;;;;;0.38;85.24;101898.00;5054488;28;20091;-74
2022/03/03 07:00:06;;;;;;;24.55;14.23;;;;;;;0.44;85.11;101898.09;5056863;28;20021;-74
2022/03/03 07:02:31;;;;;;;28.00;14.15;;;;;;;0.45;84.75;101895.50;5055637;28;20506;-73
2022/03/03 07:04:58;;;;;;;29.00;14.45;;;;;;;0.49;85.11;101906.84;5056439;28;20052;-75
2022/03/03 07:07:25;;;;;;;27.63;14.68;;;;;;;0.48;84.68;101898.16;5056467;28;20033;-72
2022/03/03 07:09:50;;;;;;;24.65;13.65;;;;;;;0.50;84.77;101892.97;5057580;28;20362;-78
2022/03/03 07:12:17;;;;;;;29.30;15.20;;;;;;;0.52;84.76;101896.47;5057374;28;20035;-76
2022/03/03 07:14:44;;;;;;;30.25;14.13;;;;;;;0.54;84.65;101904.28;5059819;28;20033;-75
2022/03/03 07:17:30;;;;;;;26.63;14.27;;;;;;;0.55;85.11;101899.13;5037098;28;20076;-75
2022/03/03 07:20:06;;;;;;;28.25;13.95;;;;;;;0.55;85.54;101900.84;5044580;28;20029;-78
2022/03/03 07:22:40;;;;;;;25.63;13.80;;;;;;;0.57;85.85;101900.00;5055349;28;20039;-75
2022/03/03 07:25:12;;;;;;;24.33;14.15;;;;;;;0.59;85.65;101915.66;5036147;28;20040;-74
2022/03/03 07:27:43;;;;;;;26.55;14.60;;;;;;;0.76;85.32;101910.69;5068957;28;20024;-75
2022/03/03 07:30:15;;;;;;;26.50;13.57;;;;;;;0.85;84.53;101904.72;5074063;28;20029;-77
2022/03/03 07:33:10;;;;;;;24.17;13.90;;;;;;;0.89;84.12;101906.50;5066833;28;20146;-75
2022/03/03 07:35:35;;;;;;;24.67;13.93;;;;;;;0.96;84.26;101909.22;4942677;28;20047;-75
2022/03/03 07:38:12;;;;;;;29.33;14.23;;;;;;;1.06;83.54;101912.81;4937345;29;20114;-73
2022/03/03 07:40:38;;;;;;;29.00;14.52;;;;;;;1.19;83.03;101907.72;4936554;29;20130;-74
2022/03/03 07:43:04;;;;;;;23.50;13.45;;;;;;;1.29;82.49;101909.56;4955576;28;20062;-75
2022/03/03 07:45:29;;;;;;;28.75;14.98;;;;;;;1.39;82.70;101911.41;4954767;29;20067;-75
2022/03/03 07:47:56;;;;;;;25.60;15.32;;;;;;;1.48;81.60;101905.41;4948539;28;20163;-74
2022/03/03 07:50:23;;;;;;;26.83;13.80;;;;;;;1.57;81.13;101915.09;4942792;29;20059;-76
2022/03/03 07:52:49;;;;;;;25.65;14.13;;;;;;;1.66;80.91;101916.91;4931662;29;20126;-76
2022/03/03 07:55:15;;;;;;;27.10;13.50;;;;;;;1.76;79.32;101910.91;4955107;29;20102;-77
2022/03/03 07:58:00;;;;;;;24.90;13.23;;;;;;;1.84;78.65;101909.22;4954385;29;20468;-75
2022/03/03 08:00:31;;;;;;;24.48;13.80;;;;;;;1.95;77.78;101914.56;4954880;29;20039;-76
2022/03/03 08:02:59;;;;;;;23.88;13.32;;;;;;;1.99;78.52;101911.09;4952465;29;20031;-77
2022/03/03 08:05:29;;;;;;;25.20;13.77;;;;;;;2.05;77.79;101919.00;4951303;28;20054;-76
2022/03/03 08:07:56;;;;;;;25.10;12.90;;;;;;;2.12;77.47;101915.56;4949451;28;20031;-77
2022/03/03 08:10:25;;;;;;;27.48;14.07;;;;;;;2.20;76.75;101914.75;4950252;28;20110;-75
2022/03/03 08:12:54;;;;;;;23.88;13.57;;;;;;;2.22;76.42;101919.13;5007649;28;20080;-74
2022/03/03 08:15:20;;;;;;;24.27;13.55;;;;;;;2.29;76.32;101915.69;5024119;28;20033;-75
2022/03/03 08:17:51;;;;;;;26.05;13.48;;;;;;;2.33;75.69;101913.97;5034261;28;20036;-77
2022/03/03 08:20:17;;;;;;;28.80;13.27;;;;;;;2.45;75.78;101911.41;5034728;28;20040;-74
2022/03/03 08:22:43;;;;;;;25.52;15.13;;;;;;;2.55;75.12;101921.97;5035012;28;20058;-75
2022/03/03 08:25:10;;;;;;;26.70;14.05;;;;;;;2.62;75.60;101922.00;5034126;28;20033;-74
2022/03/03 08:27:37;;;;;;;26.85;14.23;;;;;;;2.73;74.18;101923.78;5033288;28;20033;-77
2022/03/03 08:30:04;;;;;;;24.52;13.85;;;;;;;2.83;73.84;101920.34;5034624;28;20037;-77
2022/03/03 08:32:36;;;;;;;24.55;13.18;;;;;;;2.93;74.24;101926.53;5034277;28;20474;-75
2022/03/03 08:35:18;;;;;;;26.65;13.45;;;;;;;3.02;72.21;101928.28;5033758;28;20045;-75
2022/03/03 08:37:49;;;;;;;;;;;;;;;3.16;71.47;101930.94;5022187;28;20033;-75
2022/03/03 08:40:18;;;;;;;22.10;13.20;;;;;;;3.29;72.32;101922.28;5032307;28;20008;-75
2022/03/03 08:42:48;;;;;;;24.15;13.98;;;;;;;3.41;71.98;101924.91;5039504;28;20056;-77
2022/03/03 08:45:16;;;;;;;22.10;13.38;;;;;;;3.56;71.99;101923.22;5047003;28;20021;-75
2022/03/03 08:47:42;;;;;;;24.80;14.35;;;;;;;3.71;71.46;101923.22;5036287;28;20025;-76
2022/03/03 08:50:13;;;;;;;21.50;13.50;;;;;;;3.88;71.10;101922.38;5040756;28;20098;-74
2022/03/03 08:52:43;;;;;;;25.07;14.37;;;;;;;4.00;71.02;101927.59;5034475;28;20040;-76
2022/03/03 08:55:11;;;;;;;23.75;13.77;;;;;;;4.12;69.29;101921.50;5036787;28;20287;-74
2022/03/03 08:57:37;;;;;;;23.42;13.07;;;;;;;4.25;69.76;101923.22;5051507;28;20048;-78
2022/03/03 09:00:09;;;;;;;22.73;13.65;;;;;;;4.55;68.35;101920.56;5050674;28;20029;-76
2022/03/03 09:02:35;;;;;;;23.05;12.93;;;;;;;5.41;67.21;101912.31;5052830;28;20025;-78
2022/03/03 09:05:01;;;;;;;24.38;12.45;;;;;;;7.04;61.83;101919.59;5052799;28;20515;-77
2022/03/03 09:07:27;;;;;;;23.85;13.00;;;;;;;8.74;56.28;101918.66;5052768;28;20095;-77
2022/03/03 09:09:52;;;;;;;20.42;12.75;;;;;;;10.08;48.23;101920.06;5047916;28;20473;-77
2022/03/03 09:12:18;;;;;;;20.30;13.10;;;;;;;11.14;44.28;101924.25;5051013;28;20029;-78
2022/03/03 09:14:43;;;;;;;18.40;12.18;;;;;;;12.19;40.68;101925.38;5052571;28;20025;-77
2022/03/03 09:17:08;;;;;;;21.70;12.93;;;;;;;12.66;39.53;101921.09;5048778;28;20025;-77
2022/03/03 09:19:34;;;;;;;18.80;13.15;;;;;;;13.47;36.84;101911.00;5046649;28;20545;-75
2022/03/03 09:21:59;;;;;;;21.00;13.10;;;;;;;13.74;36.37;101920.50;5047817;28;20035;-74
2022/03/03 09:24:24;;;;;;;18.58;13.13;;;;;;;14.25;34.58;101915.72;5053161;28;20025;-78
2022/03/03 09:26:51;;;;;;;22.10;13.68;;;;;;;13.83;34.88;101916.63;5053056;28;20036;-76
2022/03/03 09:29:17;;;;;;;20.42;13.32;;;;;;;14.33;35.11;101920.72;5053640;28;20025;-78
2022/03/03 09:31:44;;;;;;;18.33;12.80;;;;;;;14.45;34.68;101906.03;5052527;28;20025;-76
2022/03/03 09:34:10;;;;;;;18.42;12.80;;;;;;;14.91;33.60;101911.97;5049589;28;20143;-77
2022/03/03 09:36:36;;;;;;;18.58;12.60;;;;;;;14.85;32.78;101914.06;5048276;28;20063;-76
2022/03/03 09:39:11;;;;;;;21.23;12.55;;;;;;;15.48;32.54;101912.91;5050618;27;20400;-74
2022/03/03 09:41:36;;;;;;;16.58;13.30;;;;;;;15.56;31.25;101908.91;5068408;27;20029;-76
2022/03/03 09:44:02;;;;;;;17.10;12.40;;;;;;;15.38;31.19;101912.47;5046162;28;20030;-77
2022/03/03 09:46:27;;;;;;;16.58;12.40;;;;;;;15.88;30.71;101906.50;5044988;28;20048;-77
2022/03/03 09:48:53;;;;;;;18.05;12.27;;;;;;;15.75;30.70;101915.16;5031842;28;20026;-74
2022/03/03 09:51:19;;;;;;;16.95;12.45;;;;;;;16.06;29.66;101903.81;5026002;28;20055;-77
2022/03/03 09:53:49;;;;;;;15.63;12.32;;;;;;;15.48;30.45;101913.75;5033108;28;20140;-77
2022/03/03 09:56:15;;;;;;;17.20;11.80;;;;;;;15.79;31.41;101908.72;5043459;28;20109;-77
2022/03/03 09:58:40;;;;;;;17.90;13.00;;;;;;;16.40;29.11;101903.91;5045847;28;20457;-74
2022/03/03 10:01:07;;;;;;;16.33;11.95;;;;;;;16.21;30.20;101903.03;5046146;28;20031;-76
2022/03/03 10:03:34;;;;;;;19.33;13.13;;;;;;;15.84;29.32;101907.59;5045409;28;20029;-76
2022/03/03 10:06:00;;;;;;;18.52;13.40;;;;;;;16.57;30.61;101911.88;5041435;28;20488;-74
2022/03/03 10:08:28;;;;;;;18.05;12.68;;;;;;;16.51;29.62;101907.72;5043434;28;20044;-74
2022/03/03 10:10:58;;;;;;;17.38;12.38;;;;;;;16.76;28.42;101903.72;5035070;28;20469;-74
2022/03/03 10:13:25;;;;;;;20.52;12.65;;;;;;;16.76;29.17;101906.41;5038911;28;20484;-77
2022/03/03 10:15:53;;;;;;;19.20;12.02;;;;;;;17.08;29.24;101910.97;5045237;28;20036;-74
2022/03/03 10:18:20;;;;;;;21.67;13.25;;;;;;;17.19;28.80;101904.06;5039793;28;20541;-77
2022/03/03 10:20:58;;;;;;;15.80;12.38;;;;;;;17.08;29.13;101897.59;5040096;28;20381;-76
2022/03/03 10:23:27;;;;;;;18.95;12.38;;;;;;;17.40;28.87;101901.13;5045072;28;20106;-77
2022/03/03 10:25:54;;;;;;;19.67;12.77;;;;;;;17.56;28.23;101908.28;5044503;28;20162;-76
2022/03/03 10:28:25;;;;;;;16.00;11.82;;;;;;;17.96;27.45;101908.69;5045199;28;20071;-77
2022/03/03 10:30:55;;;;;;;17.30;12.55;;;;;;;17.57;28.24;101900.19;5045165;28;20045;-75
2022/03/03 10:33:25;;;;;;;18.90;13.32;;;;;;;18.22;27.31;101900.91;5045544;28;20116;-77
2022/03/03 10:36:14;;;;;;;18.90;12.90;;;;;;;18.14;26.27;101904.06;5044797;27;20036;-76
2022/03/03 10:38:56;;;;;;;17.10;12.30;;;;;;;18.34;25.46;101901.03;5032361;28;20560;-75
2022/03/03 10:41:33;;;;;;;19.00;13.35;;;;;;;18.27;26.10;101896.13;5042438;28;20030;-74
2022/03/03 10:44:01;;;;;;;18.35;12.13;;;;;;;18.18;27.05;101903.78;5064587;27;20080;-75
2022/03/03 10:46:28;;;;;;;25.73;13.10;;;;;;;18.32;27.50;101900.25;5119846;27;20496;-74
2022/03/03 10:48:53;;;;;;;16.17;12.65;;;;;;;18.74;25.79;101908.44;5072567;27;20050;-75
2022/03/03 10:51:21;;;;;;;17.13;12.80;;;;;;;18.60;26.26;101901.22;5028767;28;20025;-77
2022/03/03 10:53:46;;;;;;;18.92;11.82;;;;;;;18.91;24.54;101895.81;5034334;27;20057;-74
2022/03/03 10:56:17;;;;;;;16.15;12.40;;;;;;;18.54;25.02;101893.56;5037133;27;20511;-74
2022/03/03 10:58:52;;;;;;;16.77;12.38;;;;;;;18.31;25.63;101892.28;5022306;27;20038;-76
2022/03/03 11:01:21;;;;;;;20.55;12.27;;;;;;;19.02;24.54;101893.31;5021960;27;20026;-75
2022/03/03 11:03:50;;;;;;;16.48;11.93;;;;;;;18.57;25.45;101892.50;5043486;27;20379;-74
2022/03/03 11:06:20;;;;;;;17.00;11.70;;;;;;;18.60;24.81;101886.97;5136054;27;20080;-73
2022/03/03 11:08:48;;;;;;;19.17;11.88;;;;;;;18.71;25.39;101891.66;5076837;27;20039;-74
2022/03/03 11:11:14;;;;;;;16.98;12.05;;;;;;;19.74;22.66;101887.69;5135580;27;20023;-74
2022/03/03 11:13:39;;;;;;;16.90;11.40;;;;;;;19.23;24.28;101880.28;5053721;27;20365;-75
2022/03/03 11:16:06;;;;;;;16.52;11.05;;;;;;;19.42;23.42;101879.09;5052115;27;20050;-73